Time;durP1;ratioP1;P1;durP2;ratioP2;P2;SDS_P1;SDS_P2;PMS_P1;PMS_P2;Temp;Humidity;BMP_temperature;BMP_pressure;BME280_temperature;BME280_humidity;BME280_pressure;Samples;Min_cycle;Max_cycle;Signal;HPM_P1;HPM_P2
2020/12/21 00:01:50;;;;;;;7.27;2.10;;;24.70;84.00;;;;;;5068989;28;20214;-74
2020/12/21 00:04:18;;;;;;;7.60;2.03;;;24.80;83.80;;;;;;5065562;28;20218;-74
2020/12/21 00:06:50;;;;;;;8.17;1.53;;;24.80;84.00;;;;;;5062678;28;20206;-74
2020/12/21 00:09:18;;;;;;;6.13;1.70;;;24.80;84.20;;;;;;5068927;28;20179;-74
2020/12/21 00:11:45;;;;;;;4.70;1.63;;;24.70;84.20;;;;;;5065945;28;20183;-73
2020/12/21 00:14:13;;;;;;;9.23;1.90;;;24.60;84.40;;;;;;5069571;28;20549;-77
2020/12/21 00:16:52;;;;;;;6.20;1.50;;;24.50;84.50;;;;;;5066192;28;20209;-76
2020/12/21 00:19:20;;;;;;;6.47;1.60;;;24.50;84.30;;;;;;5064654;28;20196;-76
2020/12/21 00:21:53;;;;;;;4.10;1.10;;;24.60;83.30;;;;;;5071782;28;20608;-75
2020/12/21 00:24:21;;;;;;;9.23;1.50;;;24.70;83.20;;;;;;5070892;28;20697;-76
2020/12/21 00:26:51;;;;;;;9.00;1.60;;;24.60;82.10;;;;;;5071105;28;20179;-73
2020/12/21 00:29:20;;;;;;;6.83;2.00;;;24.80;83.00;;;;;;5071597;28;20278;-75
2020/12/21 00:31:48;;;;;;;8.87;1.87;;;24.90;82.20;;;;;;5071054;28;20183;-76
2020/12/21 00:34:17;;;;;;;9.73;1.80;;;25.00;82.50;;;;;;5071967;28;20241;-76
2020/12/21 00:36:51;;;;;;;5.10;1.67;;;25.10;82.00;;;;;;5072281;28;20209;-77
2020/12/21 00:39:19;;;;;;;8.47;1.90;;;25.10;81.80;;;;;;5072245;28;20183;-75
2020/12/21 00:41:46;;;;;;;8.47;1.53;;;25.30;81.80;;;;;;5071794;28;20187;-77
2020/12/21 00:44:14;;;;;;;9.50;1.60;;;25.20;82.00;;;;;;5071971;28;20210;-74
2020/12/21 00:46:42;;;;;;;5.47;1.50;;;25.20;80.90;;;;;;5072174;28;20235;-75
2020/12/21 00:49:09;;;;;;;6.40;1.37;;;25.30;80.20;;;;;;5057938;28;20262;-74
2020/12/21 00:51:37;;;;;;;8.77;1.67;;;25.20;80.30;;;;;;5072161;28;20694;-74
2020/12/21 00:54:04;;;;;;;8.40;1.50;;;25.10;81.80;;;;;;5071907;28;20175;-73
2020/12/21 00:56:33;;;;;;;6.33;2.10;;;25.20;81.60;;;;;;5071622;28;20209;-72
2020/12/21 00:59:01;;;;;;;6.43;1.60;;;25.10;81.30;;;;;;5071688;28;20175;-73
2020/12/21 01:01:30;;;;;;;6.47;1.60;;;25.10;81.90;;;;;;5072085;28;20262;-74
2020/12/21 01:03:58;;;;;;;9.20;1.63;;;25.10;80.60;;;;;;5071904;28;20199;-74
2020/12/21 01:06:26;;;;;;;6.50;1.90;;;24.90;80.70;;;;;;5071021;28;20172;-73
2020/12/21 01:08:54;;;;;;;7.77;2.13;;;25.10;81.40;;;;;;5074671;28;20203;-73
2020/12/21 01:11:21;;;;;;;6.13;1.50;;;25.00;82.30;;;;;;5075247;28;20187;-74
2020/12/21 01:13:49;;;;;;;10.57;1.70;;;25.00;82.80;;;;;;5074351;28;20542;-73
2020/12/21 01:16:20;;;;;;;6.17;2.03;;;25.10;82.20;;;;;;5075557;28;20226;-73
2020/12/21 01:18:48;;;;;;;7.00;1.57;;;25.20;82.00;;;;;;5075410;28;20218;-73
2020/12/21 01:21:24;;;;;;;5.23;2.03;;;25.00;81.40;;;;;;5075521;28;20240;-73
2020/12/21 01:23:51;;;;;;;7.33;1.90;;;25.10;81.90;;;;;;5075413;28;20680;-72
2020/12/21 01:26:19;;;;;;;8.80;1.87;;;25.20;81.80;;;;;;5074934;28;20183;-72
2020/12/21 01:28:48;;;;;;;9.60;1.70;;;25.00;80.80;;;;;;5075272;28;20172;-72
2020/12/21 01:31:16;;;;;;;4.10;1.30;;;25.00;81.90;;;;;;5075623;28;20659;-73
2020/12/21 01:33:44;;;;;;;5.33;1.47;;;25.10;81.90;;;;;;5074906;28;20258;-73
2020/12/21 01:36:11;;;;;;;4.87;1.57;;;25.10;82.20;;;;;;5073831;28;20175;-74
2020/12/21 01:38:39;;;;;;;7.40;2.03;;;25.10;81.60;;;;;;5074763;28;20187;-74
2020/12/21 01:41:06;;;;;;;6.37;2.37;;;25.00;80.80;;;;;;5074809;28;20179;-75
2020/12/21 01:43:33;;;;;;;12.83;2.67;;;25.00;81.40;;;;;;5075357;28;20179;-74
2020/12/21 01:46:12;;;;;;;8.03;2.10;;;25.10;81.50;;;;;;5075304;28;20215;-75
2020/12/21 01:48:42;;;;;;;9.53;2.20;;;25.10;81.60;;;;;;5064072;28;20187;-74
2020/12/21 01:51:20;;;;;;;7.37;1.93;;;25.20;80.80;;;;;;5072557;28;20191;-74
2020/12/21 01:53:51;;;;;;;10.40;2.13;;;25.20;81.20;;;;;;5074842;28;20179;-74
2020/12/21 01:56:19;;;;;;;6.33;1.93;;;25.20;81.30;;;;;;5073750;28;20233;-74
2020/12/21 01:58:48;;;;;;;7.57;2.33;;;25.10;82.70;;;;;;5074276;28;20187;-74
2020/12/21 02:01:17;;;;;;;6.37;1.67;;;25.10;82.80;;;;;;5074663;28;20186;-73
2020/12/21 02:03:45;;;;;;;6.07;1.60;;;25.00;83.40;;;;;;5074801;28;20183;-73
2020/12/21 02:06:13;;;;;;;5.33;1.83;;;24.80;84.30;;;;;;5074787;28;20211;-73
2020/12/21 02:08:40;;;;;;;4.20;1.40;;;24.70;86.00;;;;;;5074835;28;20179;-73
2020/12/21 02:11:07;;;;;;;6.87;1.80;;;24.70;86.20;;;;;;5073933;28;20190;-72
2020/12/21 02:13:35;;;;;;;5.87;1.63;;;24.80;86.40;;;;;;5074470;28;20179;-72
2020/12/21 02:16:03;;;;;;;7.43;1.70;;;24.60;86.60;;;;;;5074304;28;20182;-73
2020/12/21 02:18:31;;;;;;;4.97;1.40;;;24.50;87.00;;;;;;5073664;28;20592;-72
2020/12/21 02:20:58;;;;;;;5.27;1.53;;;24.30;87.20;;;;;;5066280;28;20559;-74
2020/12/21 02:23:25;;;;;;;7.83;1.40;;;24.30;88.20;;;;;;5071226;28;20167;-72
2020/12/21 02:25:53;;;;;;;9.13;1.60;;;24.20;87.30;;;;;;5073808;28;20211;-73
2020/12/21 02:28:20;;;;;;;4.70;1.53;;;24.30;87.70;;;;;;5071290;28;20175;-73
2020/12/21 02:30:48;;;;;;;5.87;1.43;;;24.30;87.80;;;;;;5074075;28;20633;-73
2020/12/21 02:33:16;;;;;;;7.90;1.90;;;24.30;88.20;;;;;;5074099;28;20648;-73
2020/12/21 02:35:43;;;;;;;10.30;2.17;;;24.10;89.30;;;;;;5074459;28;20187;-75
2020/12/21 02:38:10;;;;;;;7.83;2.03;;;24.00;90.10;;;;;;5074093;28;20673;-75
2020/12/21 02:40:42;;;;;;;8.13;2.10;;;24.00;90.30;;;;;;5072663;28;20329;-73
2020/12/21 02:43:09;;;;;;;5.67;1.43;;;23.90;90.60;;;;;;5073995;28;20269;-73
2020/12/21 02:45:36;;;;;;;7.50;1.63;;;23.80;91.20;;;;;;5073965;28;20211;-73
2020/12/21 02:48:03;;;;;;;5.03;1.87;;;23.80;91.50;;;;;;5067504;28;20175;-73
2020/12/21 02:50:31;;;;;;;8.37;1.87;;;23.80;91.30;;;;;;5066031;28;20179;-73
2020/12/21 02:52:58;;;;;;;5.40;1.73;;;23.70;91.40;;;;;;5073197;28;20175;-72
2020/12/21 02:55:25;;;;;;;7.73;1.77;;;23.70;91.50;;;;;;5073230;28;20175;-73
2020/12/21 02:57:53;;;;;;;8.67;1.50;;;23.60;91.70;;;;;;5073509;28;20266;-73
2020/12/21 03:00:20;;;;;;;9.50;2.10;;;23.50;91.70;;;;;;5073682;28;20167;-74
2020/12/21 03:02:54;;;;;;;11.40;2.47;;;23.40;92.20;;;;;;5073566;28;20186;-77
2020/12/21 03:05:21;;;;;;;6.20;1.60;;;23.30;92.80;;;;;;5071712;28;20203;-78
2020/12/21 03:07:55;;;;;;;6.07;1.83;;;23.30;92.70;;;;;;5072402;28;20180;-79
2020/12/21 03:10:23;;;;;;;9.77;2.13;;;23.30;92.80;;;;;;5073501;28;20175;-81
2020/12/21 03:12:50;;;;;;;5.17;1.50;;;23.20;93.10;;;;;;5073405;28;20171;-74
2020/12/21 03:15:43;;;;;;;10.20;2.03;;;23.10;93.10;;;;;;5072636;28;20176;-81
2020/12/21 03:18:11;;;;;;;5.03;1.93;;;23.00;93.50;;;;;;5072698;28;20663;-79
2020/12/21 03:20:39;;;;;;;9.07;2.03;;;22.80;93.70;;;;;;5072327;28;20589;-78
2020/12/21 03:23:06;;;;;;;5.47;1.60;;;22.80;94.70;;;;;;5072987;28;20656;-77
2020/12/21 03:25:34;;;;;;;8.30;1.80;;;22.60;95.00;;;;;;5072670;28;20448;-74
2020/12/21 03:28:01;;;;;;;7.77;1.83;;;22.60;95.50;;;;;;5071159;28;20539;-73
2020/12/21 03:30:28;;;;;;;8.27;1.73;;;22.60;95.00;;;;;;5071370;28;20183;-72
2020/12/21 03:32:56;;;;;;;8.07;2.03;;;22.50;95.20;;;;;;5072825;28;20171;-78
2020/12/21 03:35:23;;;;;;;6.90;1.60;;;22.40;95.10;;;;;;5072981;28;20181;-78
2020/12/21 03:37:51;;;;;;;6.57;1.50;;;22.40;95.10;;;;;;5072881;28;20233;-76
2020/12/21 03:40:19;;;;;;;6.70;1.70;;;22.40;95.30;;;;;;5072539;28;20183;-77
2020/12/21 03:42:46;;;;;;;7.60;2.33;;;22.40;95.80;;;;;;5072902;28;20183;-71
2020/12/21 03:45:14;;;;;;;5.33;1.80;;;22.50;96.10;;;;;;5072601;28;20555;-73
2020/12/21 03:47:48;;;;;;;6.07;1.70;;;22.60;96.20;;;;;;5069449;28;20714;-80
2020/12/21 03:50:21;;;;;;;8.33;2.03;;;22.50;95.80;;;;;;5062965;28;20180;-83
2020/12/21 03:52:54;;;;;;;8.83;1.83;;;22.50;95.50;;;;;;5072906;28;20172;-83
2020/12/21 03:55:37;;;;;;;7.17;1.83;;;22.50;95.50;;;;;;5071762;28;20218;-83
2020/12/21 03:58:05;;;;;;;12.07;2.23;;;22.50;95.90;;;;;;5072714;28;20531;-75
2020/12/21 04:00:32;;;;;;;7.90;1.67;;;22.50;96.30;;;;;;5073284;28;20190;-74
2020/12/21 04:02:59;;;;;;;4.40;1.77;;;22.50;96.30;;;;;;5072826;28;20262;-75
2020/12/21 04:05:27;;;;;;;6.17;1.47;;;22.40;96.10;;;;;;5072824;28;20674;-79
2020/12/21 04:07:54;;;;;;;8.07;2.50;;;22.40;96.10;;;;;;5073607;28;20198;-76
2020/12/21 04:10:21;;;;;;;9.67;2.00;;;22.20;96.70;;;;;;5074003;28;20242;-80
2020/12/21 04:12:49;;;;;;;6.53;1.93;;;22.10;96.50;;;;;;5073563;28;20186;-81
2020/12/21 04:15:16;;;;;;;7.03;1.80;;;22.00;97.20;;;;;;5073190;28;20547;-79
2020/12/21 04:17:43;;;;;;;6.77;1.80;;;21.90;96.70;;;;;;5072747;28;20579;-80
2020/12/21 04:20:11;;;;;;;7.60;1.77;;;21.80;96.80;;;;;;5068064;28;20268;-76
2020/12/21 04:22:38;;;;;;;6.30;1.37;;;21.80;97.00;;;;;;5066807;28;20240;-80
2020/12/21 04:25:05;;;;;;;6.07;2.03;;;21.80;96.80;;;;;;5072121;28;20638;-77
2020/12/21 04:27:33;;;;;;;4.90;1.30;;;21.90;97.10;;;;;;5065745;28;20182;-79
2020/12/21 04:30:00;;;;;;;2.17;0.97;;;21.90;97.10;;;;;;5072827;28;20754;-79
2020/12/21 04:32:27;;;;;;;4.60;1.10;;;21.90;97.10;;;;;;5072872;28;20523;-72
2020/12/21 04:34:55;;;;;;;8.97;1.40;;;21.90;96.80;;;;;;5072143;28;20187;-74
2020/12/21 04:37:22;;;;;;;3.90;1.00;;;21.90;97.10;;;;;;5069222;28;20181;-73
2020/12/21 04:39:49;;;;;;;4.13;1.50;;;21.90;97.10;;;;;;5068745;28;20191;-80
2020/12/21 04:42:17;;;;;;;3.87;1.53;;;21.70;96.20;;;;;;5073567;28;20175;-74
2020/12/21 04:44:44;;;;;;;4.93;1.17;;;21.60;96.30;;;;;;5076517;28;20207;-75
2020/12/21 04:47:13;;;;;;;5.43;1.13;;;21.50;96.80;;;;;;5075621;28;20183;-74
2020/12/21 04:49:42;;;;;;;6.47;1.60;;;21.50;96.80;;;;;;5062573;28;20221;-74
2020/12/21 04:52:12;;;;;;;5.90;1.40;;;21.40;96.30;;;;;;5076955;28;20520;-79
2020/12/21 04:54:41;;;;;;;3.90;1.20;;;21.40;96.50;;;;;;5071717;28;20181;-77
2020/12/21 04:57:08;;;;;;;4.27;1.37;;;21.40;96.80;;;;;;5066891;28;20179;-78
2020/12/21 04:59:36;;;;;;;3.53;1.10;;;21.40;96.50;;;;;;5066958;28;20175;-75
2020/12/21 05:02:06;;;;;;;4.00;1.30;;;21.40;96.60;;;;;;5069694;28;20179;-75
2020/12/21 05:04:33;;;;;;;5.40;1.20;;;21.30;96.20;;;;;;5058845;28;20205;-77
2020/12/21 05:07:00;;;;;;;3.83;1.33;;;21.30;96.40;;;;;;5062245;28;20645;-74
2020/12/21 05:09:28;;;;;;;3.83;1.40;;;21.30;95.90;;;;;;5067421;28;20632;-75
2020/12/21 05:12:07;;;;;;;4.57;1.27;;;21.40;96.00;;;;;;5064873;28;20187;-73
2020/12/21 05:14:37;;;;;;;5.20;1.40;;;21.20;95.40;;;;;;5070072;28;20599;-77
2020/12/21 05:17:30;;;;;;;4.07;1.30;;;21.20;95.30;;;;;;5059475;28;20179;-74
2020/12/21 05:20:04;;;;;;;2.80;1.20;;;21.30;95.50;;;;;;5064699;28;20788;-74
2020/12/21 05:22:32;;;;;;;4.90;1.33;;;21.30;95.50;;;;;;5067168;28;20559;-74
2020/12/21 05:25:09;;;;;;;4.20;1.50;;;21.30;95.40;;;;;;5065317;28;20277;-76
2020/12/21 05:27:36;;;;;;;6.17;1.63;;;21.40;96.00;;;;;;5062775;28;20610;-73
2020/12/21 05:30:04;;;;;;;3.20;1.40;;;21.30;95.40;;;;;;5069441;28;20190;-73
2020/12/21 05:32:32;;;;;;;2.53;1.10;;;21.20;95.70;;;;;;5071360;28;20217;-75
2020/12/21 05:35:10;;;;;;;6.53;1.20;;;21.20;95.70;;;;;;5058542;28;20184;-71
2020/12/21 05:37:39;;;;;;;7.37;1.50;;;21.10;95.20;;;;;;5062853;28;20190;-73
2020/12/21 05:40:09;;;;;;;6.70;1.73;;;21.10;95.70;;;;;;5059788;28;20188;-73
2020/12/21 05:42:37;;;;;;;3.73;1.50;;;21.10;95.90;;;;;;5064583;28;20552;-73
2020/12/21 05:45:08;;;;;;;5.10;1.30;;;21.20;96.10;;;;;;5062020;28;20229;-73
2020/12/21 05:47:36;;;;;;;5.27;1.47;;;21.30;96.30;;;;;;5061545;28;20199;-71
2020/12/21 05:50:08;;;;;;;9.27;2.40;;;21.30;96.30;;;;;;5071363;28;20182;-75
2020/12/21 05:52:37;;;;;;;4.77;1.67;;;21.30;96.30;;;;;;5062190;28;20176;-74
2020/12/21 05:55:08;;;;;;;7.23;1.50;;;21.20;96.00;;;;;;5066240;28;20179;-73
2020/12/21 05:57:36;;;;;;;3.87;1.23;;;21.20;96.40;;;;;;5065824;28;20512;-76
2020/12/21 06:00:07;;;;;;;4.70;1.40;;;21.20;96.80;;;;;;5068465;28;20180;-75
2020/12/21 06:02:35;;;;;;;5.70;1.70;;;21.30;96.70;;;;;;5067969;28;20197;-75
2020/12/21 06:05:11;;;;;;;3.87;1.20;;;21.20;96.50;;;;;;5062015;28;20218;-75
2020/12/21 06:07:39;;;;;;;3.80;1.00;;;21.20;96.40;;;;;;5060821;28;20541;-75
2020/12/21 06:10:09;;;;;;;2.77;1.00;;;21.20;96.60;;;;;;5067503;28;20211;-76
2020/12/21 06:12:50;;;;;;;6.80;1.57;;;21.10;97.00;;;;;;5059929;28;20195;-76
2020/12/21 06:15:27;;;;;;;5.57;1.80;;;21.10;97.20;;;;;;5059462;28;20184;-74
2020/12/21 06:17:55;;;;;;;6.73;1.30;;;21.10;97.40;;;;;;5071536;28;20216;-74
2020/12/21 06:20:22;;;;;;;8.57;1.47;;;21.00;97.20;;;;;;5072911;28;20222;-76
2020/12/21 06:22:51;;;;;;;7.37;1.40;;;21.00;97.70;;;;;;5063140;28;20185;-78
2020/12/21 06:25:23;;;;;;;8.90;1.50;;;21.00;97.50;;;;;;5058072;28;20602;-79
2020/12/21 06:27:50;;;;;;;9.43;2.40;;;20.90;97.60;;;;;;5055365;28;20183;-81
2020/12/21 06:30:28;;;;;;;9.63;1.97;;;20.80;98.10;;;;;;5058127;28;20217;-82
2020/12/21 06:33:04;;;;;;;7.70;1.70;;;20.80;98.10;;;;;;5062214;28;20207;-74
2020/12/21 06:35:42;;;;;;;4.03;1.40;;;20.70;98.60;;;;;;5060916;28;20191;-75
2020/12/21 06:38:10;;;;;;;4.23;1.73;;;20.70;98.50;;;;;;5063682;28;20183;-76
2020/12/21 06:40:37;;;;;;;3.67;1.33;;;20.60;98.40;;;;;;5071588;28;20697;-79
2020/12/21 06:43:12;;;;;;;5.13;1.17;;;20.50;98.50;;;;;;5062293;28;20183;-80
2020/12/21 06:45:40;;;;;;;5.70;1.80;;;20.50;98.70;;;;;;5065877;28;20222;-80
2020/12/21 06:48:10;;;;;;;6.63;2.13;;;20.50;98.90;;;;;;5064375;28;20175;-79
2020/12/21 06:50:38;;;;;;;3.87;1.20;;;20.50;98.70;;;;;;5062151;28;20638;-78
2020/12/21 06:53:08;;;;;;;4.53;1.37;;;20.50;98.40;;;;;;5060137;28;20182;-79
2020/12/21 06:55:37;;;;;;;2.50;0.87;;;20.50;98.90;;;;;;5060019;28;20183;-78
2020/12/21 06:58:04;;;;;;;3.30;1.10;;;20.50;98.30;;;;;;5068255;28;20191;-80
2020/12/21 07:00:32;;;;;;;2.50;1.37;;;20.50;98.20;;;;;;5061360;28;20184;-76
2020/12/21 07:02:59;;;;;;;5.93;1.50;;;20.50;98.20;;;;;;5060529;28;20183;-78
2020/12/21 07:05:26;;;;;;;2.07;1.20;;;20.40;97.80;;;;;;5060686;28;20625;-79
2020/12/21 07:08:00;;;;;;;5.93;2.17;;;20.40;98.20;;;;;;5064026;28;20179;-79
2020/12/21 07:10:31;;;;;;;3.57;1.43;;;20.40;98.10;;;;;;5058010;28;20176;-79
2020/12/21 07:12:58;;;;;;;4.70;1.80;;;20.40;98.40;;;;;;5065601;28;20179;-79
2020/12/21 07:15:26;;;;;;;4.43;2.00;;;20.40;98.10;;;;;;5060309;28;20184;-78
2020/12/21 07:17:54;;;;;;;6.57;1.80;;;20.40;98.30;;;;;;5057177;28;20191;-78
2020/12/21 07:20:22;;;;;;;4.57;1.27;;;20.40;98.50;;;;;;5064217;28;20245;-76
2020/12/21 07:22:50;;;;;;;4.87;1.00;;;20.40;98.50;;;;;;5054352;28;20287;-78
2020/12/21 07:25:17;;;;;;;3.77;1.00;;;20.40;97.90;;;;;;5058075;28;20334;-78
2020/12/21 07:27:47;;;;;;;3.47;1.20;;;20.40;97.60;;;;;;5068594;28;20194;-78
2020/12/21 07:30:15;;;;;;;5.23;1.20;;;20.40;97.90;;;;;;5053846;28;20180;-78
2020/12/21 07:32:42;;;;;;;5.37;1.07;;;20.40;98.10;;;;;;5059332;28;20184;-76
2020/12/21 07:35:13;;;;;;;3.30;1.53;;;20.50;97.70;;;;;;5058701;28;20270;-77
2020/12/21 07:37:40;;;;;;;4.33;1.30;;;20.50;98.00;;;;;;5055021;28;20187;-78
2020/12/21 07:40:21;;;;;;;5.93;1.63;;;20.40;98.10;;;;;;5054233;28;20183;-77
2020/12/21 07:42:53;;;;;;;3.53;1.27;;;20.40;98.30;;;;;;5059779;28;20171;-76
2020/12/21 07:45:23;;;;;;;4.83;1.53;;;20.40;98.20;;;;;;5059193;28;20212;-77
2020/12/21 07:47:51;;;;;;;3.83;1.40;;;20.30;98.10;;;;;;5061045;28;20207;-77
2020/12/21 07:50:18;;;;;;;4.80;1.70;;;20.30;98.30;;;;;;5059640;28;20187;-76
2020/12/21 07:52:46;;;;;;;3.17;1.60;;;20.30;98.40;;;;;;5054916;28;20195;-77
2020/12/21 07:55:14;;;;;;;2.30;1.10;;;20.30;98.50;;;;;;5063567;28;20179;-76
2020/12/21 07:57:43;;;;;;;2.27;1.00;;;20.20;98.10;;;;;;5053580;28;20191;-76
2020/12/21 08:00:13;;;;;;;2.27;1.30;;;20.10;98.30;;;;;;5055629;28;20181;-77
2020/12/21 08:02:44;;;;;;;3.00;1.37;;;20.10;98.10;;;;;;5064889;28;20188;-76
2020/12/21 08:05:21;;;;;;;4.90;1.83;;;20.00;98.30;;;;;;5065619;28;20237;-78
2020/12/21 08:07:48;;;;;;;6.23;3.00;;;20.00;98.00;;;;;;5057334;28;20214;-76
2020/12/21 08:10:19;;;;;;;6.40;3.83;;;19.90;97.70;;;;;;5059390;28;20540;-77
2020/12/21 08:12:47;;;;;;;10.77;6.70;;;19.80;97.90;;;;;;5055024;28;20184;-77
2020/12/21 08:15:14;;;;;;;4.30;3.17;;;19.70;97.70;;;;;;5061874;28;20192;-76
2020/12/21 08:17:41;;;;;;;3.77;1.53;;;19.80;98.40;;;;;;5070060;28;20545;-77
2020/12/21 08:20:09;;;;;;;2.30;1.60;;;19.70;98.00;;;;;;5060570;28;20179;-78
2020/12/21 08:22:38;;;;;;;8.23;1.73;;;19.70;98.50;;;;;;5057047;28;20316;-79
2020/12/21 08:25:15;;;;;;;3.77;1.50;;;19.60;98.40;;;;;;5057401;28;20238;-78
2020/12/21 08:27:52;;;;;;;4.70;1.67;;;19.60;98.50;;;;;;5061030;28;20209;-79
2020/12/21 08:30:24;;;;;;;5.70;1.83;;;19.60;98.60;;;;;;5060644;28;20536;-77
2020/12/21 08:32:52;;;;;;;4.63;1.70;;;19.60;99.10;;;;;;5055609;28;20191;-78
2020/12/21 08:35:27;;;;;;;4.93;1.70;;;19.60;99.10;;;;;;5058384;28;20630;-76
2020/12/21 08:38:13;;;;;;;8.53;1.90;;;19.60;98.80;;;;;;5052508;28;20183;-76
2020/12/21 08:40:41;;;;;;;6.00;1.63;;;19.60;98.80;;;;;;5062804;28;20642;-75
2020/12/21 08:43:09;;;;;;;7.30;1.93;;;19.60;98.90;;;;;;5060556;28;20289;-77
2020/12/21 08:45:38;;;;;;;4.97;1.63;;;19.50;98.80;;;;;;5060740;28;20527;-75
2020/12/21 08:48:06;;;;;;;4.03;1.30;;;19.50;99.00;;;;;;5062944;28;20274;-75
2020/12/21 08:50:33;;;;;;;4.90;2.10;;;19.40;98.70;;;;;;5064158;28;20195;-75
2020/12/21 08:53:01;;;;;;;2.43;1.40;;;19.50;99.10;;;;;;5058211;28;20542;-74
2020/12/21 08:55:28;;;;;;;4.47;1.70;;;19.50;99.00;;;;;;5063739;28;20175;-75
2020/12/21 08:57:55;;;;;;;4.13;1.47;;;19.40;98.70;;;;;;5058939;28;20194;-74
2020/12/21 09:00:22;;;;;;;3.47;1.20;;;19.40;98.90;;;;;;5059602;28;20234;-75
2020/12/21 09:02:50;;;;;;;2.10;1.50;;;19.40;98.80;;;;;;5065874;28;20217;-75
2020/12/21 09:05:17;;;;;;;1.50;1.37;;;19.30;98.60;;;;;;5063674;28;20268;-75
2020/12/21 09:07:44;;;;;;;1.67;0.90;;;19.20;98.70;;;;;;5060359;28;20183;-73
2020/12/21 09:10:12;;;;;;;2.03;1.13;;;19.10;98.40;;;;;;5067264;28;20219;-74
2020/12/21 09:12:39;;;;;;;2.33;1.30;;;19.10;98.70;;;;;;5060123;28;20180;-76
2020/12/21 09:15:06;;;;;;;2.50;1.27;;;19.10;98.60;;;;;;5067633;28;20211;-74
2020/12/21 09:17:34;;;;;;;3.63;1.00;;;19.00;98.40;;;;;;5064962;28;20192;-75
2020/12/21 09:20:01;;;;;;;1.93;1.17;;;19.00;98.50;;;;;;5057268;28;20195;-74
2020/12/21 09:22:28;;;;;;;7.90;5.77;;;19.00;98.60;;;;;;5066267;28;20198;-75
2020/12/21 09:24:56;;;;;;;3.73;3.23;;;19.00;98.70;;;;;;5062877;28;20590;-74
2020/12/21 09:27:23;;;;;;;4.07;2.97;;;19.00;98.80;;;;;;5066611;28;20241;-74
2020/12/21 09:29:50;;;;;;;2.53;2.03;;;18.90;98.50;;;;;;5061734;28;20543;-74
2020/12/21 09:32:17;;;;;;;4.60;3.53;;;18.90;98.20;;;;;;5067565;28;20188;-75
2020/12/21 09:34:45;;;;;;;3.87;1.73;;;18.90;98.40;;;;;;5068028;28;20176;-74
2020/12/21 09:37:15;;;;;;;1.67;1.03;;;18.90;98.60;;;;;;5058329;28;20187;-73
2020/12/21 09:39:42;;;;;;;4.10;1.17;;;18.90;98.90;;;;;;5062977;28;20175;-77
2020/12/21 09:42:10;;;;;;;1.57;1.17;;;18.90;99.00;;;;;;5062567;28;20181;-74
2020/12/21 09:44:37;;;;;;;2.27;1.30;;;18.90;98.70;;;;;;5060907;28;20218;-75
2020/12/21 09:47:04;;;;;;;5.30;1.63;;;18.90;98.90;;;;;;5056809;28;20190;-75
2020/12/21 09:49:32;;;;;;;2.90;1.10;;;18.90;98.90;;;;;;5060090;28;20194;-73
2020/12/21 09:51:59;;;;;;;1.30;1.00;;;18.90;98.90;;;;;;5066537;28;20324;-74
2020/12/21 09:54:26;;;;;;;3.80;1.57;;;18.90;98.90;;;;;;5062992;28;20172;-74
2020/12/21 09:56:53;;;;;;;2.23;1.30;;;18.90;99.20;;;;;;5060125;28;20192;-74
2020/12/21 09:59:21;;;;;;;4.33;1.50;;;18.90;99.30;;;;;;5061854;28;20180;-73
2020/12/21 10:01:48;;;;;;;5.27;1.77;;;18.90;99.30;;;;;;5062483;28;20183;-73
2020/12/21 10:04:15;;;;;;;2.17;1.40;;;18.90;99.40;;;;;;5065904;28;20579;-72
2020/12/21 10:06:52;;;;;;;3.23;1.43;;;18.90;99.10;;;;;;5062930;28;20194;-73
2020/12/21 10:09:19;;;;;;;5.10;1.33;;;18.90;99.20;;;;;;5058881;28;20281;-74
2020/12/21 10:11:46;;;;;;;5.87;1.40;;;18.90;99.30;;;;;;5065353;28;20635;-75
2020/12/21 10:14:14;;;;;;;2.07;1.10;;;18.90;99.40;;;;;;5060945;28;20629;-73
2020/12/21 10:16:41;;;;;;;2.80;1.17;;;18.90;99.40;;;;;;5063076;28;20249;-74
2020/12/21 10:19:08;;;;;;;1.80;1.43;;;18.90;99.10;;;;;;5065592;28;20183;-74
2020/12/21 10:21:35;;;;;;;2.77;1.30;;;18.90;99.30;;;;;;5061006;28;20187;-74
2020/12/21 10:24:03;;;;;;;2.30;1.30;;;18.90;99.50;;;;;;5059269;28;20224;-74
2020/12/21 10:26:30;;;;;;;1.90;1.10;;;18.80;99.10;;;;;;5057682;28;20219;-74
2020/12/21 10:28:58;;;;;;;1.47;1.20;;;18.80;99.30;;;;;;5063266;28;20183;-74
2020/12/21 10:31:30;;;;;;;2.00;1.30;;;18.80;99.20;;;;;;5063041;28;20290;-74
2020/12/21 10:33:57;;;;;;;2.10;1.40;;;18.80;99.40;;;;;;5057320;28;20176;-74
2020/12/21 10:36:24;;;;;;;2.17;1.10;;;18.90;99.70;;;;;;5055749;28;20557;-73
2020/12/21 10:38:52;;;;;;;2.87;1.30;;;18.90;99.40;;;;;;5060503;28;20666;-74
2020/12/21 10:41:19;;;;;;;2.10;1.30;;;18.90;99.50;;;;;;5064310;28;20187;-74
2020/12/21 10:43:47;;;;;;;3.60;1.40;;;19.00;99.60;;;;;;5066680;28;20176;-73
2020/12/21 10:46:20;;;;;;;3.73;1.30;;;19.00;99.40;;;;;;5067638;28;20229;-73
2020/12/21 10:48:48;;;;;;;1.30;1.20;;;18.90;99.00;;;;;;5067890;28;20229;-74
2020/12/21 10:51:24;;;;;;;2.47;1.50;;;18.90;99.20;;;;;;5070107;28;20233;-74
2020/12/21 10:53:51;;;;;;;6.20;1.87;;;18.90;99.50;;;;;;5061775;28;20650;-73
2020/12/21 10:56:19;;;;;;;3.23;1.37;;;18.90;99.50;;;;;;5064928;28;20534;-74
2020/12/21 10:58:46;;;;;;;2.33;1.43;;;18.90;99.40;;;;;;5067860;28;20525;-74
2020/12/21 11:01:14;;;;;;;2.63;1.67;;;18.90;99.50;;;;;;5065740;28;20653;-74
2020/12/21 11:03:42;;;;;;;4.27;1.93;;;19.00;99.50;;;;;;5061945;28;20281;-73
2020/12/21 11:06:10;;;;;;;2.13;1.43;;;19.00;99.70;;;;;;5055871;28;20222;-74
2020/12/21 11:08:38;;;;;;;3.07;1.80;;;19.00;99.70;;;;;;5065119;28;20183;-73
2020/12/21 11:11:05;;;;;;;2.53;1.67;;;19.00;99.80;;;;;;5059167;28;20187;-75
2020/12/21 11:13:35;;;;;;;2.40;1.80;;;19.00;99.90;;;;;;5068484;28;20258;-74
2020/12/21 11:16:04;;;;;;;2.80;1.50;;;19.00;99.80;;;;;;5062587;28;20210;-74
2020/12/21 11:18:31;;;;;;;4.03;1.87;;;19.00;99.80;;;;;;5069557;28;20186;-74
2020/12/21 11:21:01;;;;;;;3.10;1.80;;;19.00;99.70;;;;;;5057928;28;20268;-74
2020/12/21 11:23:29;;;;;;;2.20;1.40;;;18.90;99.70;;;;;;5066909;28;20175;-74
2020/12/21 11:25:56;;;;;;;2.40;1.47;;;19.00;99.90;;;;;;5060349;28;20222;-74
2020/12/21 11:28:23;;;;;;;3.73;1.73;;;19.00;99.70;;;;;;5059235;28;20188;-74
2020/12/21 11:30:51;;;;;;;3.40;1.37;;;18.90;99.50;;;;;;5062971;28;20188;-74
2020/12/21 11:33:18;;;;;;;2.87;1.50;;;18.90;99.60;;;;;;5064112;28;20232;-73
2020/12/21 11:35:46;;;;;;;1.83;1.20;;;18.90;99.70;;;;;;5063512;28;20329;-74
2020/12/21 11:38:15;;;;;;;3.23;1.70;;;18.90;99.70;;;;;;5055648;28;20669;-74
2020/12/21 11:40:43;;;;;;;3.20;1.60;;;18.90;99.80;;;;;;5067510;28;20187;-73
2020/12/21 11:43:12;;;;;;;2.13;1.63;;;18.90;99.80;;;;;;5065456;28;20184;-74
2020/12/21 11:45:39;;;;;;;2.53;1.80;;;18.90;99.70;;;;;;5055503;28;20684;-73
2020/12/21 11:48:06;;;;;;;3.27;1.67;;;18.90;99.80;;;;;;5061371;28;20208;-73
2020/12/21 11:50:33;;;;;;;3.27;1.70;;;19.00;99.90;;;;;;5056119;28;20184;-74
2020/12/21 11:53:01;;;;;;;2.93;1.50;;;19.00;99.70;;;;;;5055548;28;20207;-74
2020/12/21 11:55:28;;;;;;;4.10;2.00;;;18.90;99.70;;;;;;5064726;28;20184;-74
2020/12/21 11:57:56;;;;;;;2.30;1.53;;;19.00;99.80;;;;;;5055993;28;20262;-74
2020/12/21 12:00:24;;;;;;;4.80;1.90;;;18.90;99.50;;;;;;5058200;28;20184;-74
2020/12/21 12:02:51;;;;;;;3.27;1.37;;;18.90;99.60;;;;;;5065733;28;20179;-73
2020/12/21 12:05:19;;;;;;;5.07;1.80;;;18.80;99.60;;;;;;5060111;28;20218;-74
2020/12/21 12:07:46;;;;;;;2.83;1.80;;;18.80;99.70;;;;;;5057804;28;20553;-74
2020/12/21 12:10:13;;;;;;;3.37;2.20;;;18.80;99.90;;;;;;5062667;28;20176;-74
2020/12/21 12:12:41;;;;;;;3.50;1.80;;;18.80;99.80;;;;;;5061772;28;20188;-74
2020/12/21 12:15:08;;;;;;;3.20;1.83;;;18.80;99.70;;;;;;5064452;28;20187;-74
2020/12/21 12:17:35;;;;;;;3.33;2.17;;;18.80;99.70;;;;;;5060605;28;20179;-74
2020/12/21 12:20:03;;;;;;;3.53;2.27;;;18.80;99.70;;;;;;5062553;28;20569;-73
2020/12/21 12:22:31;;;;;;;3.30;1.97;;;18.80;99.80;;;;;;5062371;28;20187;-74
2020/12/21 12:24:58;;;;;;;3.73;2.00;;;18.70;99.70;;;;;;5058525;28;20685;-73
2020/12/21 12:27:26;;;;;;;4.43;2.20;;;18.70;99.70;;;;;;5062244;28;20231;-74
2020/12/21 12:29:54;;;;;;;3.20;2.30;;;18.80;99.90;;;;;;5062964;28;20210;-73
2020/12/21 12:32:21;;;;;;;2.20;2.00;;;18.80;99.90;;;;;;5064183;28;20180;-73
2020/12/21 12:34:48;;;;;;;4.83;2.40;;;18.80;99.90;;;;;;5061359;28;20782;-73
2020/12/21 12:37:17;;;;;;;3.37;2.10;;;18.80;99.90;;;;;;5058671;28;20218;-72
2020/12/21 12:39:45;;;;;;;4.07;2.43;;;18.80;99.90;;;;;;5062228;28;20180;-72
2020/12/21 12:42:13;;;;;;;3.23;2.40;;;18.80;99.90;;;;;;5066600;28;20186;-74
2020/12/21 12:44:40;;;;;;;4.10;2.37;;;18.80;99.90;;;;;;5062362;28;20649;-73
2020/12/21 12:47:07;;;;;;;3.90;2.40;;;18.80;99.90;;;;;;5070864;28;20215;-73
2020/12/21 12:49:35;;;;;;;4.20;2.77;;;18.80;99.90;;;;;;5072516;28;20194;-72
2020/12/21 12:52:02;;;;;;;3.30;2.30;;;18.80;99.90;;;;;;5072260;28;20210;-73
2020/12/21 12:54:30;;;;;;;4.73;2.73;;;18.80;99.90;;;;;;5066827;28;20571;-72